Tiempo atmosférico en la estación meteorológica de Ólvega, Soria (1039 m.)



Fecha
DESCASC
Temp. máxima en grados centígrados (hora)
DESCASC
Temp. mínima en grados centígrados (hora)
DESCASC
Temp. media en grados centígrados
DESCASC
Racha de viento máxima en m/sg (hora)
DESCASC
Velocidad máxima media en intervalos de 10 minutos(hora)
DESCASC
Precipitaciones diarias en mm
DESCASC
Precipitaciones de 00:00 a 06:00 en mm
DESCASC
Precipitaciones de 06:00 a 12:00 en mm
DESCASC
Precipitaciones de 12:00 a 18:00 en mm
DESCASC
Precipitaciones de 18:00 a 24:00 en mm
DESCASC
23-06-2019 31.8 (17:30) 17.2 (06:30) 24.5 11.94 (14:50) 6.39 (14:50) 0 0 0 0 0
22-06-2019 29 (17:20) 6.7 (05:10) 17.8 9.44 (11:40) 5.28 (23:40) 0 0 0 0 0
21-06-2019 18.1 (17:30) 10.4 (23:59) 14.3 10 (16:50) 6.11 (16:50) 3.8 3.6 0 0.2 0
20-06-2019 21.3 (14:50) 10.4 (00:00) 15.8 8.61 (16:20) 5.83 (16:40) 5.8 0.2 0 1.2 4.4
19-06-2019 27.3 (17:30) 11.8 (00:00) 19.5 12.78 (23:00) 4.44 (10:50) -- 0 0 -- 5
18-06-2019 28.2 (17:00) 15.4 (00:00) 21.8 17.22 (14:50) 8.89 (15:20) 0 0 0 0 0
17-06-2019 29.7 (18:10) 10.5 (00:00) 20.1 8.89 (18:20) 5.83 (00:10) 0 0 0 0 0
16-06-2019 27.5 (17:00) 4.6 (00:00) 16 9.17 (13:40) 5.83 (23:30) 0 0 0 0 0
15-06-2019 21.5 (15:30) 6.4 (00:00) 14 9.17 (19:40) 5.83 (20:30) 0 0 0 0 0
14-06-2019 23.9 (16:20) 8.3 (00:00) 16.1 14.72 (16:40) 7.78 (16:40) 0 0 0 0 0
13-06-2019 23.6 (17:20) 4.2 (00:00) 13.9 12.22 (21:10) 8.33 (21:10) 0 0 0 0 0
12-06-2019 20.8 (19:10) 1.7 (00:00) 11.2 11.39 (23:10) 8.33 (23:10) 0 0 0 0 0
11-06-2019 13.3 (17:10) 3.6 (00:00) 8.5 12.22 (12:40) 6.11 (15:00) 2.2 0 1.2 1 0
10-06-2019 15.5 (17:40) 8.1 (00:00) 11.8 10.28 (20:40) 5.83 (20:30) 0 0 0 0 0
09-06-2019 25.1 (16:20) 7.4 (00:00) 16.3 10.28 (19:20) 6.11 (19:30) 0 0 0 0 0
08-06-2019 21.6 (16:10) 1.8 (00:00) 11.7 13.06 (21:30) 8.06 (21:10) 0 0 0 0 0
07-06-2019 17.4 (19:10) 6 (00:00) 11.7 13.06 (03:10) 7.22 (10:00) 0.2 0 0.2 0 0
06-06-2019 20.3 (16:20) 4.8 (00:00) 12.5 20.56 (20:50) 9.17 (17:50) 0 0 0 0 0
05-06-2019 12.5 (17:10) 6 (00:00) 9.3 8.61 (12:10) 5.28 (12:10) 25.4 5.2 11 9 0.2
04-06-2019 26.3 (15:20) 11.8 (00:00) 19 16.39 (12:20) 8.61 (12:30) 0 0 0 0 0
03-06-2019 29.6 (16:00) 14.3 (00:00) 22 12.22 (15:40) 6.11 (16:30) 0 0 0 0 0
02-06-2019 31.4 (16:30) 12.9 (00:00) 22.1 12.22 (23:40) 6.67 (23:50) 0.8 0 0 0 0.8
01-06-2019 29.2 (16:10) 9 (00:00) 19.1 7.78 (17:20) 5.28 (17:20) 0 0 0 0 0
31-05-2019 24.8 (16:50) 6.1 (00:00) 15.4 8.06 (17:40) 4.17 (16:40) 0 0 0 0 0
30-05-2019 22.9 (17:30) 3.4 (00:00) 13.1 10.83 (14:40) 5.56 (14:30) 0 0 0 0 0
29-05-2019 14.4 (17:40) 5.8 (00:00) 10.1 11.67 (12:40) 7.5 (13:10) 0 0 0 0 0
28-05-2019 13.6 (16:40) 5.3 (00:00) 9.5 14.72 (18:20) 8.89 (18:40) 0 0 0 0 0
27-05-2019 17.9 (16:20) 4.4 (00:00) 11.1 12.22 (17:50) 7.78 (17:50) 0 0 0 0 0
26-05-2019 15.2 (17:10) 6.6 (00:00) 10.9 12.5 (17:40) 8.61 (17:40) 0 0 0 0 0
25-05-2019 13.4 (16:20) 7.9 (00:00) 10.6 14.17 (00:40) 8.06 (04:20) 0 0 0 0 0

Gráficas

Temp. máximas Temp. mínimas Temp. medias Precipitaciones Rachas de viento máximas Velocidades máximas media en intervalos de 10 minutos

Datos horarios

Fecha y hora oficial Temperatura (ºC) Velocidad del viento (km/h) Dirección del viento Racha (km/h) Dirección de racha Precipitación (mm) Presión (hPa) Tendencia (hPa) Humedad (%)
2019-06-23 23:00:00 22.5 15 Sudeste 26 Sudeste 0 -- -- 48
2019-06-23 22:00:00 23.8 10 Sur 16 Sudeste 0 -- -- 45
2019-06-23 21:00:00 26 5 Sur 16 Sudoeste 0 -- -- 41
2019-06-23 20:00:00 28.4 8 Sudoeste 24 Sudoeste 0 -- -- 33
2019-06-23 19:00:00 29.2 9 Sudoeste 33 Sudoeste 0 -- -- 30
2019-06-23 18:00:00 31.1 13 Sur 34 Sudeste 0 -- -- 29
2019-06-23 17:00:00 29.7 20 Sur 37 Sur 0 -- -- 29
2019-06-23 16:00:00 29.4 13 Sur 36 Sur 0 -- -- 32
2019-06-23 15:00:00 28.7 18 Sur 43 Sudeste 0 -- -- 34
2019-06-23 14:00:00 27.7 18 Sur 38 Sudeste 0 -- -- 34
2019-06-23 13:00:00 27.4 18 Sur 31 Sur 0 -- -- 32
2019-06-23 12:00:00 26.8 9 Sudeste 31 Sur 0 -- -- 39
2019-06-23 11:00:00 24.6 15 Sur 33 Sur 0 -- -- 48
2019-06-23 10:00:00 22.9 20 Sur 40 Sudeste 0 -- -- 49
2019-06-23 09:00:00 22.7 14 Sur 28 Sudeste 0 -- -- 50
2019-06-23 08:00:00 21 15 Sur 26 Sur 0 -- -- 55
2019-06-23 07:00:00 17.6 12 Sudeste 22 Sur 0 -- -- 64
2019-06-23 06:00:00 17.5 14 Sudeste 25 Sudeste 0 -- -- 60
2019-06-23 05:00:00 18.8 12 Sur 27 Sur 0 -- -- 55
2019-06-23 04:00:00 20.2 16 Sur 25 Sur 0 -- -- 49
2019-06-23 03:00:00 18.3 15 Sudeste 24 Sur 0 -- -- 61
2019-06-23 02:00:00 19 14 Sur 26 Sudeste 0 -- -- 58
2019-06-23 01:00:00 19.6 18 Sur 27 Sur 0 -- -- 54
2019-06-23 00:00:00 20.3 18 Sudeste 32 Sudeste 0 -- -- 50
2019-06-22 23:00:00 19.7 15 Sudeste 27 Sudeste 0 -- -- 52
2019-06-22 22:00:00 21 16 Sur 22 Sudeste 0 -- -- 51
2019-06-22 21:00:00 23.9 10 Sur 21 Sur 0 -- -- 36
2019-06-22 20:00:00 26.1 10 Sur 23 Oeste 0 -- -- 32
2019-06-22 19:00:00 27.2 12 Sur 32 Sudoeste 0 -- -- 31
2019-06-22 18:00:00 28.1 15 Oeste 32 Oeste 0 -- -- 29
2019-06-22 17:00:00 27.7 15 Oeste 33 Sudoeste 0 -- -- 31
2019-06-22 16:00:00 28.1 15 Sudoeste 30 Sudoeste 0 -- -- 32
2019-06-22 15:00:00 26.8 8 Sudoeste 32 Sur 0 -- -- 34
2019-06-22 14:00:00 24.9 14 Sudoeste 26 Sudoeste 0 -- -- 42
2019-06-22 13:00:00 23.6 12 Sudoeste 28 Sudoeste 0 -- -- 46
2019-06-22 12:00:00 21.7 12 Sudoeste 34 Sudoeste 0 -- -- 53
2019-06-22 11:00:00 20.2 13 Sudoeste 26 Sur 0 -- -- 58
2019-06-22 10:00:00 19.3 13 Sudeste 28 Sur 0 -- -- 57
2019-06-22 09:00:00 19 4 Noroeste 11 Noroeste 0 -- -- 59
2019-06-22 08:00:00 14 0 Calma 5 Nordeste 0 -- -- 73
2019-06-22 07:00:00 7.6 0 Calma 8 Sudeste 0 -- -- 94
2019-06-22 06:00:00 7.8 5 Sudeste 8 Sudeste 0 -- -- 95
2019-06-22 05:00:00 6.9 2 Sur 10 Sur 0 -- -- 93
2019-06-22 04:00:00 7.2 4 Sur 8 Sur 0 -- -- 94
2019-06-22 03:00:00 7.8 4 Sudeste 9 Sudeste 0 -- -- 95
2019-06-22 02:00:00 8 3 Sur 9 Sur 0 -- -- 94
2019-06-22 01:00:00 9 3 Sur 8 Sur 0 -- -- 89
2019-06-22 00:00:00 10.4 0 Calma 7 Nordeste 0 -- -- 86
2019-06-21 23:00:00 11 0 Calma 6 Norte 0 -- -- 84
2019-06-21 22:00:00 13 7 Norte 19 Norte 0 -- -- 76
2019-06-21 21:00:00 15 14 Norte 24 Norte 0 -- -- 69
2019-06-21 20:00:00 16.2 15 Norte 30 Nordeste 0 -- -- 63
2019-06-21 19:00:00 17.1 14 Norte 31 Nordeste 0 -- -- 62
2019-06-21 18:00:00 17.2 17 Norte 32 Norte 0 -- -- 66
2019-06-21 17:00:00 17.7 19 Norte 36 Norte 0 -- -- 61
2019-06-21 16:00:00 17.3 19 Norte 30 Norte 0 -- -- 63
2019-06-21 15:00:00 16.7 20 Norte 31 Norte 0 -- -- 67
2019-06-21 14:00:00 16.8 17 Norte 28 Nordeste 0.2 -- -- 69
2019-06-21 13:00:00 15.8 10 Norte 22 Nordeste 0 -- -- 71
2019-06-21 12:00:00 13.9 10 Norte 20 Norte 0 -- -- 79
2019-06-21 11:00:00 12.6 6 Norte 16 Norte 0 -- -- 89
2019-06-21 10:00:00 12.2 10 Norte 19 Norte 0 -- -- 90
2019-06-21 09:00:00 11.9 10 Norte 17 Norte 0 -- -- 91
2019-06-21 08:00:00 12.3 5 Norte 10 Sudeste 0 -- -- 91
2019-06-21 07:00:00 11.3 4 Sur 8 Sudeste 0 -- -- 95
2019-06-21 06:00:00 11.4 2 Norte 9 Noroeste 0 -- -- 95
2019-06-21 05:00:00 11.3 3 Norte 12 Noroeste 1 -- -- 95
2019-06-21 04:00:00 11.2 4 Nordeste 13 Norte 2.6 -- -- 95
2019-06-21 03:00:00 11.7 10 Norte 17 Norte 0 -- -- 94
2019-06-21 02:00:00 11.9 9 Noroeste 18 Este 0 -- -- 95
2019-06-21 01:00:00 12 8 Noroeste 17 Norte 0 -- -- 95
2019-06-21 00:00:00 12.3 7 Norte 13 Noroeste 0 -- -- 94
2019-06-20 23:00:00 11.9 4 Noroeste 17 Nordeste 0.6 -- -- 95
2019-06-20 22:00:00 13 12 Oeste 22 Nordeste 3.8 -- -- 92
2019-06-20 21:00:00 14 12 Norte 28 Nordeste 0 -- -- 86
2019-06-20 20:00:00 15.2 12 Norte 23 Norte 0 -- -- 83
2019-06-20 19:00:00 16 15 Norte 28 Norte 0 -- -- 79
2019-06-20 18:00:00 17 15 Norte 30 Nordeste 0.2 -- -- 77
2019-06-20 17:00:00 16.3 19 Norte 31 Nordeste 0.8 -- -- 82
2019-06-20 16:00:00 17.9 17 Nordeste 30 Nordeste 0.2 -- -- 72
2019-06-20 15:00:00 20.5 20 Nordeste 28 Nordeste 0 -- -- 62
2019-06-20 14:00:00 19.4 10 Norte 17 Norte 0 -- -- 66
2019-06-20 13:00:00 18.2 8 Noroeste 15 Norte 0 -- -- 69
2019-06-20 12:00:00 15.7 7 Norte 13 Norte 0 -- -- 81
2019-06-20 11:00:00 15.1 8 Noroeste 15 Nordeste 0 -- -- 82
2019-06-20 10:00:00 15.9 7 Norte 13 Norte 0 -- -- 81
2019-06-20 09:00:00 14.3 0 Calma 10 Nordeste 0 -- -- 89
2019-06-20 08:00:00 13.1 4 Nordeste 10 Norte 0 -- -- 94
2019-06-20 07:00:00 12.8 3 Nordeste 7 Nordeste 0 -- -- 94
2019-06-20 06:00:00 12.7 3 Norte 6 Norte 0 -- -- 95
2019-06-20 05:00:00 12.1 2 Noroeste 9 Sudeste 0 -- -- 97
2019-06-20 04:00:00 10.8 0 Calma 9 Sudoeste 0 -- -- 95
2019-06-20 03:00:00 11.2 4 Sudeste 9 Sudeste 0.2 -- -- 96
2019-06-20 02:00:00 11.6 2 Sur 10 Sudeste 0 -- -- 94
2019-06-20 01:00:00 11.9 6 Sudeste 9 Sudeste 0 -- -- 93
2019-06-20 00:00:00 14 4 Sur 13 Sudeste 0.6 -- -- 89
2019-06-19 23:00:00 15.4 14 Sudoeste 46 Oeste 3.6 -- -- 82
2019-06-19 22:00:00 16.6 5 Oeste 18 Sudoeste 0.8 -- -- 79
2019-06-19 21:00:00 17.8 8 Oeste 21 Oeste 0 -- -- 71
2019-06-19 20:00:00 23.4 8 Oeste 18 Sudoeste 0 -- -- 38
2019-06-19 19:00:00 25.3 7 Oeste 21 Oeste 0 -- -- 36
2019-06-19 18:00:00 25.2 15 Sudoeste 31 Sudoeste 0 -- -- 39
2019-06-19 17:00:00 25.7 8 Sudoeste 19 Sudoeste 0 -- -- 37
2019-06-19 16:00:00 25.7 13 Oeste 25 Oeste 0 -- -- 36
2019-06-19 15:00:00 24.6 6 Sudoeste -- -- -- -- -- 41
2019-06-19 14:00:00 22.9 11 Sudoeste 31 Sudoeste 0 -- -- 46
2019-06-19 13:00:00 22.3 12 Sudoeste 33 Sudoeste 0 -- -- 45
2019-06-19 12:00:00 21.5 15 Sudoeste 29 Sudoeste 0 -- -- 48
2019-06-19 11:00:00 21.4 14 Sudoeste 31 Oeste 0 -- -- 50
2019-06-19 10:00:00 20.6 10 Sudoeste 22 Sudoeste 0 -- -- 54
2019-06-19 09:00:00 19.6 9 Sudoeste 17 Sudoeste 0 -- -- 58
2019-06-19 08:00:00 19.1 0 Calma 11 Este 0 -- -- 58
2019-06-19 07:00:00 12.6 3 Este 17 Sudoeste 0 -- -- 75
2019-06-19 06:00:00 14.3 9 Sur 18 Sur 0 -- -- 67
2019-06-19 05:00:00 14.6 7 Sur 14 Sudoeste 0 -- -- 65
2019-06-19 04:00:00 11.8 3 Sur 13 Sudoeste 0 -- -- 76
2019-06-19 03:00:00 13.9 6 Sudoeste 12 Sudoeste 0 -- -- 65
2019-06-19 02:00:00 12.3 7 Sudeste 12 Sudeste 0 -- -- 70
2019-06-19 01:00:00 16.4 5 Sur 18 Oeste 0 -- -- 55
2019-06-19 00:00:00 18.3 11 Sudoeste 23 Sur 0 -- -- 42
2019-06-18 23:00:00 20 9 Sur 21 Sur 0 -- -- 24
2019-06-18 22:00:00 21.6 12 Sur 28 Sudoeste 0 -- -- 23
2019-06-18 21:00:00 24.5 17 Sudoeste 41 Sudoeste 0 -- -- 23
2019-06-18 20:00:00 26 19 Sudoeste 44 Sudoeste 0 -- -- 24
2019-06-18 19:00:00 27.5 16 Sudoeste 41 Sur 0 -- -- 24
2019-06-18 18:00:00 28 21 Sur 51 Sudoeste 0 -- -- 21
2019-06-18 17:00:00 28.2 19 Sur 52 Sur 0 -- -- 23
2019-06-18 16:00:00 27.5 26 Sur 55 Sur 0 -- -- 23
2019-06-18 15:00:00 26.7 27 Sur 62 Sudoeste 0 -- -- 24
2019-06-18 14:00:00 26.1 27 Sur 61 Sur 0 -- -- 26
2019-06-18 13:00:00 24.3 17 Sur 51 Sur 0 -- -- 30
2019-06-18 12:00:00 25 21 Sur 45 Sudeste 0 -- -- 26
2019-06-18 11:00:00 24.5 14 Sur 35 Sudeste 0 -- -- 31
2019-06-18 10:00:00 23.7 18 Sur 36 Sur 0 -- -- 34
2019-06-18 09:00:00 21.5 23 Sur 36 Sur 0 -- -- 39
2019-06-18 08:00:00 18.8 20 Sur 32 Sudeste 0 -- -- 37
2019-06-18 07:00:00 16.8 16 Sudeste 25 Sudeste 0 -- -- 41
2019-06-18 06:00:00 18.1 12 Sudeste 28 Sudeste 0 -- -- 38
2019-06-18 05:00:00 17.8 8 Sudeste 23 Sudeste 0 -- -- 47
2019-06-18 04:00:00 17.9 6 Nordeste 17 Sudeste 0 -- -- 39
2019-06-18 03:00:00 17 10 Sudeste 23 Sudeste 0 -- -- 48
2019-06-18 02:00:00 18.6 16 Sur 27 Sudeste 0 -- -- 44
2019-06-18 01:00:00 18.7 15 Sudeste 22 Sur 0 -- -- 47
2019-06-18 00:00:00 19.2 14 Sudeste 21 Sudeste 0 -- -- 40
2019-06-17 23:00:00 19.9 12 Sudeste 20 Sudeste 0 -- -- 37
2019-06-17 22:00:00 21.6 13 Sur 19 Sur 0 -- -- 31
2019-06-17 21:00:00 23.9 5 Sur 15 Sudoeste 0 -- -- 28
2019-06-17 20:00:00 26.4 5 Sudoeste 24 Sudoeste 0 -- -- 25
2019-06-17 19:00:00 27.1 9 Sudoeste 32 Sudoeste 0 -- -- 23
2019-06-17 18:00:00 28.6 14 Sudoeste 32 Sudoeste 0 -- -- 23
2019-06-17 17:00:00 29.1 13 Sudoeste 26 Sur 0 -- -- 24
2019-06-17 16:00:00 28.7 7 Sudoeste 31 Sur 0 -- -- 21
2019-06-17 15:00:00 27.6 12 Sur 32 Sudoeste 0 -- -- 21
2019-06-17 14:00:00 26.8 13 Sudoeste 26 Sudoeste 0 -- -- 21
2019-06-17 13:00:00 26.4 10 Sudoeste 26 Sudoeste 0 -- -- 25
2019-06-17 12:00:00 25.4 10 Sudoeste 23 Sudoeste 0 -- -- 29
2019-06-17 11:00:00 24.6 9 Sudoeste 21 Sudoeste 0 -- -- 28
2019-06-17 10:00:00 23.9 9 Sudoeste 16 Sudoeste 0 -- -- 29
2019-06-17 09:00:00 22 7 Sudeste 16 Sudeste 0 -- -- 31
2019-06-17 08:00:00 18.7 0 Calma 18 Sur 0 -- -- 42
2019-06-17 07:00:00 13.7 16 Sur 22 Sur 0 -- -- 48
2019-06-17 06:00:00 12.3 10 Sudeste 17 Sudeste 0 -- -- 57
2019-06-17 05:00:00 12.9 6 Sudeste 14 Este 0 -- -- 59
2019-06-17 04:00:00 11.7 4 Sur 9 Sudeste 0 -- -- 70
2019-06-17 03:00:00 12.5 3 Sur 17 Sur 0 -- -- 67
2019-06-17 02:00:00 14.3 3 Sudoeste 7 Este 0 -- -- 59
2019-06-17 01:00:00 16.9 6 Este 26 Sudeste 0 -- -- 47
2019-06-17 00:00:00 17.7 19 Sur 31 Sur 0 -- -- 44
2019-06-16 23:00:00 17.1 13 Sur 21 Sur 0 -- -- 45
2019-06-16 22:00:00 17.1 6 Sudeste 14 Sudeste 0 -- -- 48
2019-06-16 21:00:00 20.1 11 Sudeste 23 Sudeste 0 -- -- 42
2019-06-16 20:00:00 22.7 13 Sudeste 24 Sudeste 0 -- -- 36
2019-06-16 19:00:00 23.5 10 Norte 27 Oeste 0 -- -- 33
2019-06-16 18:00:00 26.1 12 Sudeste 21 Sudeste 0 -- -- 26
2019-06-16 17:00:00 27.5 8 Sudoeste 22 Sudoeste 0 -- -- 25
2019-06-16 16:00:00 25.9 7 Sudoeste 26 Sur 0 -- -- 26
2019-06-16 15:00:00 24.8 9 Sudeste 28 Sudeste 0 -- -- 28
2019-06-16 14:00:00 23.8 9 Sudoeste 33 Sudoeste 0 -- -- 34
2019-06-16 13:00:00 22.3 10 Sur 21 Sudoeste 0 -- -- 35
2019-06-16 12:00:00 21.3 8 Sudeste 21 Sur 0 -- -- 40
2019-06-16 11:00:00 20.9 10 Sudeste 23 Sur 0 -- -- 39
2019-06-16 10:00:00 18.1 7 Noroeste 10 Norte 0 -- -- 45
2019-06-16 09:00:00 17.8 2 Norte 6 Este 0 -- -- 45
2019-06-16 08:00:00 12.6 3 Sudeste 8 Sudeste 0 -- -- 66
2019-06-16 07:00:00 5.7 3 Sur 9 Sudeste 0 -- -- 88
2019-06-16 06:00:00 4.6 3 Sur 6 Sudeste 0 -- -- 88
2019-06-16 05:00:00 5 5 Sudeste 9 Sudeste 0 -- -- 86
2019-06-16 04:00:00 4.9 4 Sudeste 13 Sudeste 0 -- -- 87
2019-06-16 03:00:00 5.7 7 Sudeste 11 Sudeste 0 -- -- 86
2019-06-16 02:00:00 5.6 6 Sudeste 9 Sudeste 0 -- -- 89
2019-06-16 01:00:00 6.5 2 Sur 6 Sudoeste 0 -- -- 86
2019-06-16 00:00:00 8.7 6 Sudoeste 9 Sudoeste 0 -- -- 78
2019-06-15 23:00:00 11.3 5 Noroeste 11 Noroeste 0 -- -- 67
2019-06-15 22:00:00 12.8 7 Noroeste 23 Norte 0 -- -- 64
2019-06-15 21:00:00 15.1 15 Norte 30 Nordeste 0 -- -- 56
2019-06-15 20:00:00 17.1 17 Norte 33 Norte 0 -- -- 50
2019-06-15 19:00:00 19.1 18 Norte 30 Norte 0 -- -- 43
2019-06-15 18:00:00 20.6 15 Norte 28 Norte 0 -- -- 39
2019-06-15 17:00:00 20.3 14 Nordeste 31 Nordeste 0 -- -- 41
2019-06-15 16:00:00 20.4 12 Norte 23 Sudoeste 0 -- -- 39
2019-06-15 15:00:00 20.6 8 Oeste 27 Oeste 0 -- -- 32
2019-06-15 14:00:00 19.2 8 Noroeste 20 Noroeste 0 -- -- 36
2019-06-15 13:00:00 18.6 12 Sudoeste 24 Oeste 0 -- -- 42
2019-06-15 12:00:00 18.3 7 Sudoeste 25 Oeste 0 -- -- 41
2019-06-15 11:00:00 17.1 10 Oeste 23 Oeste 0 -- -- 44
2019-06-15 10:00:00 17.3 5 Sudoeste 15 Sudoeste 0 -- -- 47
2019-06-15 09:00:00 14.3 8 Sudoeste 21 Sudoeste 0 -- -- 58
2019-06-15 08:00:00 11 5 Sudeste 9 Sudeste 0 -- -- 80
2019-06-15 07:00:00 6.6 3 Sur 10 Sur 0 -- -- 91
2019-06-15 06:00:00 7.7 7 Sur 10 Sudeste 0 -- -- 90
2019-06-15 05:00:00 9.6 6 Norte 13 Nordeste 0 -- -- 90
2019-06-15 04:00:00 9.9 8 Norte 14 Norte 0 -- -- 89
2019-06-15 03:00:00 9.6 6 Norte 13 Norte 0 -- -- 89
2019-06-15 02:00:00 12.2 8 Sudoeste 20 Sudoeste 0 -- -- 50
2019-06-15 01:00:00 13.7 12 Sudoeste 30 Sudoeste 0 -- -- 43
2019-06-15 00:00:00 15.3 17 Sur 39 Sur 0 -- -- 36
2019-06-14 23:00:00 17.1 24 Sur 43 Sur 0 -- -- 32
2019-06-14 22:00:00 18 17 Sur 37 Sudoeste 0 -- -- 30
2019-06-14 21:00:00 20 19 Sur 41 Sur 0 -- -- 25
2019-06-14 20:00:00 21.5 19 Sur 39 Sudoeste 0 -- -- 24
2019-06-14 19:00:00 22.5 20 Sur 46 Sur 0 -- -- 23
2019-06-14 18:00:00 23 21 Sudoeste 53 Sur 0 -- -- 24
2019-06-14 17:00:00 23.3 23 Sudoeste 53 Sudoeste 0 -- -- 25
2019-06-14 16:00:00 22.9 20 Sur 39 Sudoeste 0 -- -- 29
2019-06-14 15:00:00 22.9 20 Sur 36 Sur 0 -- -- 31
2019-06-14 14:00:00 22.8 15 Sur 32 Sudoeste 0 -- -- 37
2019-06-14 13:00:00 21.2 12 Sur 30 Sudoeste 0 -- -- 45
2019-06-14 12:00:00 19.9 12 Sur 23 Sudeste 0 -- -- 53
2019-06-14 11:00:00 16.7 14 Sudeste 23 Sudeste 0 -- -- 61
2019-06-14 10:00:00 13.1 0 Calma 8 Norte 0 -- -- 58
2019-06-14 09:00:00 14.2 2 Noroeste 5 Sudeste 0 -- -- 61
2019-06-14 08:00:00 10.2 0 Calma 8 Este 0 -- -- 74
2019-06-14 07:00:00 9.2 2 Noroeste 8 Sudoeste 0 -- -- 77
2019-06-14 06:00:00 8.3 4 Sudeste 8 Sur 0 -- -- 82
2019-06-14 05:00:00 9.6 4 Sur 6 Noroeste 0 -- -- 79
2019-06-14 04:00:00 10.6 0 Calma 5 Noroeste 0 -- -- 78
2019-06-14 03:00:00 11.9 3 Noroeste 9 Oeste 0 -- -- 73
2019-06-14 02:00:00 12.6 7 Noroeste 13 Noroeste 0 -- -- 77
2019-06-14 01:00:00 15.3 8 Norte 27 Sudeste 0 -- -- 70
2019-06-14 00:00:00 15.6 19 Sudeste 36 Sur 0 -- -- 71
2019-06-13 23:00:00 15.7 22 Sudeste 36 Sudeste 0 -- -- 70
2019-06-13 22:00:00 16.7 20 Sudeste 44 Este 0 -- -- 66
2019-06-13 21:00:00 18.4 29 Sudeste 43 Sudeste 0 -- -- 60
2019-06-13 20:00:00 20.7 21 Sudeste 38 Sudeste 0 -- -- 51
2019-06-13 19:00:00 21.2 22 Sudeste 34 Sudeste 0 -- -- 51
2019-06-13 18:00:00 22.1 21 Sudeste 42 Sudeste 0 -- -- 46
2019-06-13 17:00:00 22.1 23 Sudeste 39 Sudeste 0 -- -- 45
2019-06-13 16:00:00 22.7 22 Sudeste 40 Sudeste 0 -- -- 45
2019-06-13 15:00:00 21.3 19 Sudeste 42 Sudeste 0 -- -- 47
2019-06-13 14:00:00 21.2 21 Sudeste 35 Sudeste 0 -- -- 47
2019-06-13 13:00:00 21.3 13 Sur 40 Sur 0 -- -- 43
2019-06-13 12:00:00 18.8 21 Sudeste 39 Sudeste 0 -- -- 52
2019-06-13 11:00:00 17.7 21 Sur 40 Sur 0 -- -- 57
2019-06-13 10:00:00 15.1 21 Sur 39 Sudeste 0 -- -- 64
2019-06-13 09:00:00 14.3 21 Sudeste 31 Sudeste 0 -- -- 66
2019-06-13 08:00:00 9.7 4 Nordeste 16 Este 0 -- -- 81
2019-06-13 07:00:00 5.1 3 Norte 8 Norte 0 -- -- 89
2019-06-13 06:00:00 5.1 2 Oeste 7 Sudeste 0 -- -- 91
2019-06-13 05:00:00 4.6 2 Sur 7 Sur 0 -- -- 92
2019-06-13 04:00:00 4.3 4 Sudeste 9 Sudeste 0 -- -- 90
2019-06-13 03:00:00 6.5 2 Este 12 Sudeste 0 -- -- 78
2019-06-13 02:00:00 8.6 5 Noroeste 27 Sur 0 -- -- 68
2019-06-13 01:00:00 11.9 23 Sudeste 41 Sudeste 0 -- -- 63
2019-06-13 00:00:00 12.4 27 Sudeste 41 Sudeste 0 -- -- 50
2019-06-12 23:00:00 12.8 27 Sudeste 38 Sudeste 0 -- -- 48
2019-06-12 22:00:00 12.5 18 Sudeste 29 Sudeste 0 -- -- 53
2019-06-12 21:00:00 14.6 6 Sur 15 Norte 0 -- -- 55
2019-06-12 20:00:00 16.6 12 Norte 31 Sudeste 0 -- -- 42
2019-06-12 19:00:00 20.7 3 Sudoeste 26 Sudoeste 0 -- -- 29
2019-06-12 18:00:00 18.5 6 Sur 21 Oeste 0 -- -- 33
2019-06-12 17:00:00 19 6 Sur 25 Oeste 0 -- -- 33
2019-06-12 16:00:00 17 10 Sur 31 Sur 0 -- -- 40
2019-06-12 15:00:00 17 11 Sudoeste 33 Sudoeste 0 -- -- 38
2019-06-12 14:00:00 16.9 13 Oeste 36 Sudoeste 0 -- -- 39
2019-06-12 13:00:00 15.3 9 Sudoeste 32 Sudoeste 0 -- -- 45
2019-06-12 12:00:00 14.8 13 Sudoeste 31 Sudoeste 0 -- -- 50
2019-06-12 11:00:00 13.7 13 Sur 31 Sudoeste 0 -- -- 55
2019-06-12 10:00:00 12.9 7 Sur 19 Sur 0 -- -- 55
2019-06-12 09:00:00 11.1 6 Este 12 Sudeste 0 -- -- 64
2019-06-12 08:00:00 7.5 3 Sudeste 8 Sudeste 0 -- -- 76
2019-06-12 07:00:00 2.4 4 Sudeste 13 Sudeste 0 -- -- 91
2019-06-12 06:00:00 2.3 6 Sudeste 10 Este 0 -- -- 91
2019-06-12 05:00:00 2.3 8 Sudeste 13 Sudeste 0 -- -- 92
2019-06-12 04:00:00 4.3 9 Sudeste 12 Sudeste 0 -- -- 93
2019-06-12 03:00:00 1.9 3 Sudeste 10 Sudeste 0 -- -- 95
2019-06-12 02:00:00 2.1 7 Sudeste 11 Sudeste 0 -- -- 94
2019-06-12 01:00:00 2.3 3 Sur 7 Sur 0 -- -- 92
2019-06-12 00:00:00 3.6 4 Sur 6 Sur 0 -- -- 90
2019-06-11 23:00:00 4.6 3 Sudeste 12 Sudoeste 0 -- -- 85
2019-06-11 22:00:00 7.4 5 Noroeste 22 Norte 0 -- -- 73
2019-06-11 21:00:00 9.7 13 Norte 29 Nordeste 0 -- -- 66
2019-06-11 20:00:00 10.1 18 Norte 30 Norte 0 -- -- 61
2019-06-11 19:00:00 11.4 18 Norte 30 Noroeste 0 -- -- 53
2019-06-11 18:00:00 12.8 21 Noroeste 37 Noroeste 0 -- -- 44
2019-06-11 17:00:00 12 15 Norte 33 Norte 0 -- -- 55
2019-06-11 16:00:00 11.9 18 Norte 40 Norte 0 -- -- 58
2019-06-11 15:00:00 10.9 22 Norte 33 Norte 0 -- -- 56
2019-06-11 14:00:00 9.8 14 Norte 30 Nordeste 0.4 -- -- 73
2019-06-11 13:00:00 8.1 10 Norte 44 Noroeste 0.6 -- -- 87
2019-06-11 12:00:00 8.7 11 Norte 25 Nordeste 0 -- -- 82
2019-06-11 11:00:00 6.8 9 Nordeste 17 Norte 0 -- -- 88
2019-06-11 10:00:00 6.2 10 Norte 16 Norte 0.2 -- -- 92
2019-06-11 09:00:00 5.7 8 Norte 14 Norte 0.2 -- -- 92
2019-06-11 08:00:00 5.3 9 Norte 15 Nordeste 0.4 -- -- 93
2019-06-11 07:00:00 5.3 7 Norte 17 Norte 0.4 -- -- 92
2019-06-11 06:00:00 5.9 10 Norte 17 Norte 0 -- -- 87
2019-06-11 05:00:00 6.4 7 Norte 14 Norte 0 -- -- 84
2019-06-11 04:00:00 6.5 5 Norte 11 Nordeste 0 -- -- 83
2019-06-11 03:00:00 6.4 4 Noroeste 6 Noroeste 0 -- -- 84
2019-06-11 02:00:00 6.5 3 Norte 11 Norte 0 -- -- 87
2019-06-11 01:00:00 7 6 Nordeste 21 Norte 0 -- -- 82
2019-06-11 00:00:00 8.1 12 Norte 21 Norte 0 -- -- 75
2019-06-10 23:00:00 8.7 12 Norte 24 Norte 0 -- -- 72
2019-06-10 22:00:00 9.1 12 Norte 26 Norte 0 -- -- 70
2019-06-10 21:00:00 10.5 17 Norte 37 Norte 0 -- -- 66
2019-06-10 20:00:00 13.7 18 Norte 31 Nordeste 0 -- -- 56
2019-06-10 19:00:00 13.5 14 Norte 30 Norte 0 -- -- 57
2019-06-10 18:00:00 14.7 17 Norte 30 Nordeste 0 -- -- 54
2019-06-10 17:00:00 15.1 15 Norte 26 Norte 0 -- -- 57
2019-06-10 16:00:00 14.9 17 Norte 28 Norte 0 -- -- 59
2019-06-10 15:00:00 14.9 17 Norte 28 Norte 0 -- -- 59
2019-06-10 14:00:00 14.2 12 Norte 22 Norte 0 -- -- 64
2019-06-10 13:00:00 13.5 9 Norte 21 Norte 0 -- -- 63
2019-06-10 12:00:00 12.3 13 Nordeste 23 Norte 0 -- -- 67
2019-06-10 11:00:00 10.7 10 Nordeste 20 Nordeste 0 -- -- 76
2019-06-10 10:00:00 9.4 12 Norte 19 Norte 0 -- -- 82
2019-06-10 09:00:00 9.1 10 Nordeste 18 Nordeste 0 -- -- 83
2019-06-10 08:00:00 8.5 10 Norte 15 Norte 0 -- -- 87
2019-06-10 07:00:00 8.3 8 Norte 18 Norte 0 -- -- 88
2019-06-10 06:00:00 8.3 13 Norte 22 Norte 0 -- -- 86
2019-06-10 05:00:00 8.6 8 Norte 24 Nordeste 0 -- -- 87
2019-06-10 04:00:00 8.9 13 Nordeste 22 Nordeste 0 -- -- 88
2019-06-10 03:00:00 9.1 14 Norte 24 Nordeste 0 -- -- 89
2019-06-10 02:00:00 9.6 14 Norte 26 Norte 0 -- -- 87
2019-06-10 01:00:00 10.2 16 Norte 27 Nordeste 0 -- -- 87
2019-06-10 00:00:00 10.7 17 Norte 31 Norte 0 -- -- 86
2019-06-09 23:00:00 11.5 17 Norte 29 Norte 0 -- -- 83
2019-06-09 22:00:00 12.1 14 Norte 30 Norte 0 -- -- 82
2019-06-09 21:00:00 14.3 19 Norte 29 Norte 0 -- -- 73
2019-06-09 20:00:00 17 16 Norte 37 Norte 0 -- -- 65
2019-06-09 19:00:00 20.6 15 Norte 26 Nordeste 0 -- -- 46
2019-06-09 18:00:00 20.7 12 Norte 28 Norte 0 -- -- 46
2019-06-09 17:00:00 23.4 11 Noroeste 21 Sudoeste 0 -- -- 30
2019-06-09 16:00:00 24.3 13 Sudoeste 23 Oeste 0 -- -- 29
2019-06-09 15:00:00 24.1 10 Oeste 32 Oeste 0 -- -- 32
2019-06-09 14:00:00 23 14 Sur 30 Sudoeste 0 -- -- 28
2019-06-09 13:00:00 22.3 14 Sudoeste 34 Sudoeste 0 -- -- 39
2019-06-09 12:00:00 21.3 15 Sudoeste 32 Sudoeste 0 -- -- 46
2019-06-09 11:00:00 19.8 8 Sudoeste 18 Sudoeste 0 -- -- 50
2019-06-09 10:00:00 19.3 7 Sudoeste 15 Sudeste 0 -- -- 52
2019-06-09 09:00:00 18.7 4 Sudeste 14 Sudeste 0 -- -- 53
2019-06-09 08:00:00 14.9 9 Sudeste 18 Sur 0 -- -- 71
2019-06-09 07:00:00 7.9 3 Sudoeste 7 Sur 0 -- -- 90
2019-06-09 06:00:00 7.8 5 Sur 8 Sudeste 0 -- -- 91
2019-06-09 05:00:00 7.6 6 Sudeste 9 Sudeste 0 -- -- 91
2019-06-09 04:00:00 8.6 3 Sudoeste 10 Sudeste 0 -- -- 89
2019-06-09 03:00:00 8.5 3 Sur 8 Sur 0 -- -- 88
2019-06-09 02:00:00 10.5 3 Sudoeste 10 Norte 0 -- -- 82
2019-06-09 01:00:00 12.5 3 Nordeste 12 Nordeste 0 -- -- 72
2019-06-09 00:00:00 13.4 4 Nordeste 21 Sudeste 0 -- -- 64
2019-06-08 23:00:00 14.7 10 Sudeste 38 Sudeste 0 -- -- 60
2019-06-08 22:00:00 16.3 27 Sudeste 47 Sudeste 0 -- -- 54
2019-06-08 21:00:00 17.7 25 Sudeste 42 Sudeste 0 -- -- 51
2019-06-08 20:00:00 18.4 26 Sudeste 42 Este 0 -- -- 50
2019-06-08 19:00:00 19.5 20 Sudeste 39 Sudeste 0 -- -- 51
2019-06-08 18:00:00 21 18 Sudeste 36 Sudeste 0 -- -- 45
2019-06-08 17:00:00 20.9 21 Sudeste 36 Sudeste 0 -- -- 46
2019-06-08 16:00:00 20.2 4 Este 27 Noroeste 0 -- -- 43
2019-06-08 15:00:00 19.2 12 Norte 31 Noroeste 0 -- -- 47
2019-06-08 14:00:00 19 10 Noroeste 29 Norte 0 -- -- 44
2019-06-08 13:00:00 16.8 17 Noroeste 31 Norte 0 -- -- 51
2019-06-08 12:00:00 17.2 9 Noroeste 27 Noroeste 0 -- -- 45
2019-06-08 11:00:00 14.7 9 Noroeste 20 Noroeste 0 -- -- 55
2019-06-08 10:00:00 13.1 6 Noroeste 11 Noroeste 0 -- -- 56
2019-06-08 09:00:00 12.9 3 Noroeste 6 Noroeste 0 -- -- 55
2019-06-08 08:00:00 8.8 0 Calma 6 Sudeste 0 -- -- 77
2019-06-08 07:00:00 2 4 Sudeste 6 Sudeste 0 -- -- 95
2019-06-08 06:00:00 1.9 5 Sudeste 9 Sudeste 0 -- -- 95
2019-06-08 05:00:00 2.2 3 Sur 8 Sudeste 0 -- -- 95
2019-06-08 04:00:00 2.6 4 Sudeste 7 Sudeste 0 -- -- 94
2019-06-08 03:00:00 3.4 4 Sudeste 10 Sudeste 0 -- -- 91
2019-06-08 02:00:00 4.8 4 Sur 13 Este 0 -- -- 90
2019-06-08 01:00:00 6.4 5 Oeste 11 Sudoeste 0 -- -- 84
2019-06-08 00:00:00 8.4 8 Noroeste 14 Noroeste 0 -- -- 75
2019-06-07 23:00:00 9.5 9 Oeste 22 Noroeste 0 -- -- 70
2019-06-07 22:00:00 10.3 6 Sudoeste 14 Oeste 0 -- -- 54
2019-06-07 21:00:00 14.4 8 Oeste 25 Sudoeste 0 -- -- 38
2019-06-07 20:00:00 15.9 10 Oeste 24 Oeste 0 -- -- 37
2019-06-07 19:00:00 16.8 13 Oeste 37 Oeste 0 -- -- 33
2019-06-07 18:00:00 17 18 Oeste 33 Oeste 0 -- -- 33
2019-06-07 17:00:00 16.9 17 Oeste 32 Oeste 0 -- -- 35
2019-06-07 16:00:00 16.5 15 Oeste 40 Oeste 0 -- -- 41
2019-06-07 15:00:00 15.3 19 Oeste 37 Sudoeste 0 -- -- 40
2019-06-07 14:00:00 14.4 18 Oeste 42 Sur 0 -- -- 42
2019-06-07 13:00:00 13.4 19 Sudoeste 37 Sudoeste 0 -- -- 52
2019-06-07 12:00:00 11.8 17 Sudoeste 36 Sudoeste 0 -- -- 58
2019-06-07 11:00:00 9.4 18 Oeste 39 Oeste 0 -- -- 64
2019-06-07 10:00:00 9.3 26 Sudoeste 45 Sudoeste 0 -- -- 62
2019-06-07 09:00:00 7.7 18 Sudoeste 42 Oeste 0 -- -- 70
2019-06-07 08:00:00 6.5 12 Sudoeste 34 Sudoeste 0 -- -- 80
2019-06-07 07:00:00 6.1 18 Sudoeste 45 Sudoeste 0.2 -- -- 81
2019-06-07 06:00:00 6.5 19 Sudoeste 37 Sudoeste 0 -- -- 82
2019-06-07 05:00:00 7.6 16 Sudoeste 43 Oeste 0 -- -- 79
2019-06-07 04:00:00 10.3 22 Sudoeste 47 Sudeste 0 -- -- 78
2019-06-07 03:00:00 13.9 17 Sur 36 Sudeste 0 -- -- 43
2019-06-07 02:00:00 13.7 13 Sudeste 44 Sudeste 0 -- -- 42
2019-06-07 01:00:00 14.5 19 Sur 32 Sur 0 -- -- 39
2019-06-07 00:00:00 15.5 17 Sudeste 40 Sudeste 0 -- -- 36
2019-06-06 23:00:00 16.2 17 Sudeste 40 Sudeste 0 -- -- 37
2019-06-06 22:00:00 17.3 15 Sur 52 Sur 0 -- -- 33
2019-06-06 21:00:00 18.5 22 Sur 74 Sur 0 -- -- 32
2019-06-06 20:00:00 19.1 27 Sur 72 Sur 0 -- -- 32
2019-06-06 19:00:00 19.6 21 Sur 60 Sur 0 -- -- 32
2019-06-06 18:00:00 19.8 28 Sur 57 Sudeste 0 -- -- 32
2019-06-06 17:00:00 19.6 26 Sur 61 Sudeste 0 -- -- 33
2019-06-06 16:00:00 19.3 25 Sur 55 Sudoeste 0 -- -- 34
2019-06-06 15:00:00 18.4 22 Sur 53 Sur 0 -- -- 40
2019-06-06 14:00:00 17.2 30 Sur 58 Sur 0 -- -- 39
2019-06-06 13:00:00 16.2 18 Sur 47 Sur 0 -- -- 45
2019-06-06 12:00:00 15.2 20 Sudeste 36 Sur 0 -- -- 48
2019-06-06 11:00:00 14.8 15 Sur 26 Sur 0 -- -- 55
2019-06-06 10:00:00 14.4 10 Sur 16 Sur 0 -- -- 56
2019-06-06 09:00:00 12.9 8 Sudeste 19 Sudeste 0 -- -- 65
2019-06-06 08:00:00 10.5 13 Sudeste 19 Sudeste 0 -- -- 77
2019-06-06 07:00:00 7.5 12 Sudeste 19 Este 0 -- -- 87
2019-06-06 06:00:00 6.5 12 Este 16 Este 0 -- -- 96
2019-06-06 05:00:00 5.2 2 Sur 5 Sur 0 -- -- 95
2019-06-06 04:00:00 5.3 4 Sudoeste 8 Sur 0 -- -- 94
2019-06-06 03:00:00 4.8 4 Sudoeste 9 Sur 0 -- -- 93
2019-06-06 02:00:00 6 5 Noroeste 10 Oeste 0 -- -- 91
2019-06-06 01:00:00 6.5 3 Noroeste 9 Noroeste 0 -- -- 89
2019-06-06 00:00:00 7.3 5 Noroeste 15 Norte 0 -- -- 88
2019-06-05 23:00:00 7.9 5 Noroeste 12 Noroeste 0 -- -- 86
2019-06-05 22:00:00 7.9 4 Noroeste 19 Norte 0 -- -- 86
2019-06-05 21:00:00 9.5 10 Norte 19 Norte 0 -- -- 80
2019-06-05 20:00:00 10.5 5 Norte 15 Norte 0 -- -- 75
2019-06-05 19:00:00 11.4 9 Norte 22 Nordeste 0.2 -- -- 73
2019-06-05 18:00:00 10.6 9 Norte 21 Noroeste 0.4 -- -- 76
2019-06-05 17:00:00 11.9 6 Nordeste 18 Norte 0.2 -- -- 72
2019-06-05 16:00:00 11.1 5 Oeste 31 Noroeste 1.2 -- -- 80
2019-06-05 15:00:00 11.7 13 Norte 25 Norte 0.2 -- -- 69
2019-06-05 14:00:00 10.6 10 Noroeste 18 Noroeste 0 -- -- 72
2019-06-05 13:00:00 6.5 5 Oeste 31 Noroeste 7 -- -- 92
2019-06-05 12:00:00 8 13 Norte 27 Noroeste 0 -- -- 88
2019-06-05 11:00:00 8.9 10 Norte 22 Noroeste 1 -- -- 86
2019-06-05 10:00:00 8.1 14 Norte 24 Norte 1.4 -- -- 93
2019-06-05 09:00:00 8.1 9 Nordeste 19 Nordeste 2 -- -- 96
2019-06-05 08:00:00 8.3 4 Norte 10 Nordeste 2.8 -- -- 96
2019-06-05 07:00:00 8.1 7 Norte 15 Norte 3.8 -- -- 96
2019-06-05 06:00:00 8.8 6 Norte 12 Norte 1 -- -- 95
2019-06-05 05:00:00 8.9 2 Norte 15 Norte 2.6 -- -- 94
2019-06-05 04:00:00 9.5 7 Norte 14 Norte 0.6 -- -- 93
2019-06-05 03:00:00 9.7 4 Noroeste 17 Nordeste 1 -- -- 91
2019-06-05 02:00:00 10.5 12 Nordeste 22 Nordeste 0 -- -- 86
2019-06-05 01:00:00 11.3 8 Norte 23 Nordeste 0 -- -- 85
2019-06-05 00:00:00 11.8 8 Norte 24 Norte 0 -- -- 89
2019-06-04 23:00:00 12.2 8 Nordeste 19 Nordeste 0 -- -- 87
2019-06-04 22:00:00 12.7 14 Norte 29 Norte 0 -- -- 84
2019-06-04 21:00:00 20.3 10 Oeste 39 Sudoeste 0 -- -- 54
2019-06-04 20:00:00 24.3 21 Sudoeste 40 Sudoeste 0 -- -- 33
2019-06-04 19:00:00 25.9 21 Sudoeste 38 Sudoeste 0 -- -- 33
2019-06-04 18:00:00 24.5 21 Sur 42 Sur 0 -- -- 33
2019-06-04 17:00:00 25.4 19 Sudoeste 45 Sudoeste 0 -- -- 35
2019-06-04 16:00:00 25.4 24 Sudoeste 57 Sur 0 -- -- 33
2019-06-04 15:00:00 25.1 26 Sudoeste 47 Sudoeste 0 -- -- 36
2019-06-04 14:00:00 25.6 22 Sur 49 Sudoeste 0 -- -- 32
2019-06-04 13:00:00 24.9 31 Sur 59 Sudoeste 0 -- -- 31
2019-06-04 12:00:00 24.2 26 Sur 55 Sur 0 -- -- 33
2019-06-04 11:00:00 23.2 19 Sur 44 Sur 0 -- -- 38
2019-06-04 10:00:00 21.8 19 Sur 36 Sudeste 0 -- -- 40
2019-06-04 09:00:00 20 21 Sudeste 34 Sudeste 0 -- -- 39
2019-06-04 08:00:00 18.4 19 Sudeste 33 Sur 0 -- -- 42
2019-06-04 07:00:00 15.9 11 Sur 17 Sur 0 -- -- 44
2019-06-04 06:00:00 16.4 12 Sur 21 Sur 0 -- -- 39
2019-06-04 05:00:00 17.7 16 Sur 23 Sur 0 -- -- 32
2019-06-04 04:00:00 18.9 14 Sur 22 Sur 0 -- -- 27
2019-06-04 03:00:00 18.5 10 Sur 18 Sudeste 0 -- -- 28
2019-06-04 02:00:00 17.8 7 Sur 13 Sur 0 -- -- 30
2019-06-04 01:00:00 20.1 8 Sur 17 Sudoeste 0 -- -- 27
2019-06-04 00:00:00 20.7 9 Sur 24 Sudoeste 0 -- -- 29
2019-06-03 23:00:00 22.1 16 Sur 43 Sudeste 0 -- -- 28
2019-06-03 22:00:00 24.4 14 Sur 39 Sudeste 0 -- -- 25
2019-06-03 21:00:00 25.4 13 Sur 30 Sur 0 -- -- 25
2019-06-03 20:00:00 26.8 5 Sur 22 Sudoeste 0 -- -- 31
2019-06-03 19:00:00 28.2 10 Sudoeste 35 Sudoeste 0 -- -- 28
2019-06-03 18:00:00 28.3 16 Sudoeste 33 Sudoeste 0 -- -- 29
2019-06-03 17:00:00 27.7 14 Sudoeste 39 Sur 0 -- -- 29
2019-06-03 16:00:00 29.6 17 Sudoeste 44 Sudoeste 0 -- -- 25
2019-06-03 15:00:00 28.1 21 Sudoeste 39 Sudoeste 0 -- -- 28
2019-06-03 14:00:00 27.1 15 Sur 38 Sudoeste 0 -- -- 31
2019-06-03 13:00:00 23.6 13 Sur 28 Sur 0 -- -- 39
2019-06-03 12:00:00 23.6 12 Sudoeste 23 Sudoeste 0 -- -- 39
2019-06-03 11:00:00 22.6 5 Nordeste 24 Sudeste 0 -- -- 40
2019-06-03 10:00:00 20 15 Sudeste 24 Sudeste 0 -- -- 46
2019-06-03 09:00:00 19.5 4 Sur 13 Este 0 -- -- 52
2019-06-03 08:00:00 18.3 7 Este 10 Este 0 -- -- 59
2019-06-03 07:00:00 16.5 4 Noroeste 21 Sudeste 0 -- -- 60
2019-06-03 06:00:00 15.6 4 Oeste 17 Este 0 -- -- 62
2019-06-03 05:00:00 18 10 Sur 18 Sudeste 0 -- -- 50
2019-06-03 04:00:00 14.6 2 Sudoeste 10 Sudoeste 0 -- -- 68
2019-06-03 03:00:00 14.8 3 Sudeste 14 Sudeste 0 -- -- 72
2019-06-03 02:00:00 17.9 15 Sudeste 28 Sudeste 0 -- -- 55
2019-06-03 01:00:00 18.4 20 Sur 31 Sur 0 -- -- 58
2019-06-03 00:00:00 20.2 23 Sur 44 Sudoeste 0.2 -- -- 52
2019-06-02 23:00:00 20.2 18 Sudeste 32 Sudeste 0 -- -- 46
2019-06-02 22:00:00 18.4 12 Sudeste 32 Oeste 0.6 -- -- 66
2019-06-02 21:00:00 21.4 5 Sur 21 Norte 0 -- -- 53
2019-06-02 20:00:00 23.7 4 Sudeste 21 Nordeste 0 -- -- 47
2019-06-02 19:00:00 26.7 6 Norte 19 Norte 0 -- -- 37
2019-06-02 18:00:00 28.9 8 Sur 21 Oeste 0 -- -- 28
2019-06-02 17:00:00 30.5 10 Sur 27 Sur 0 -- -- 29
2019-06-02 16:00:00 30.1 13 Oeste 27 Sudoeste 0 -- -- 25
2019-06-02 15:00:00 29.6 9 Sudoeste 19 Sudoeste 0 -- -- 27
2019-06-02 14:00:00 28.1 10 Sur 23 Sudoeste 0 -- -- 31
2019-06-02 13:00:00 26.9 10 Sudoeste 23 Sudoeste 0 -- -- 32
2019-06-02 12:00:00 26 8 Sudoeste 26 Sur 0 -- -- 36
2019-06-02 11:00:00 24.1 11 Sudoeste 28 Sudoeste 0 -- -- 38
2019-06-02 10:00:00 22.3 13 Sur 32 Este 0 -- -- 37
2019-06-02 09:00:00 20.8 19 Sudeste 35 Sudeste 0 -- -- 40
2019-06-02 08:00:00 19 13 Sudeste 24 Este 0 -- -- 47
2019-06-02 07:00:00 13.6 14 Sudeste 23 Sudeste 0 -- -- 61
2019-06-02 06:00:00 12.9 10 Sudeste 16 Este 0 -- -- 64
2019-06-02 05:00:00 15.1 3 Norte 21 Sudeste 0 -- -- 56
2019-06-02 04:00:00 15.9 16 Sudeste 27 Sudeste 0 -- -- 53
2019-06-02 03:00:00 15.8 14 Sudeste 31 Sudeste 0 -- -- 53
2019-06-02 02:00:00 16.8 15 Sudeste 32 Sudeste 0 -- -- 46
2019-06-02 01:00:00 18.1 12 Sudeste 24 Sudeste 0 -- -- 40
2019-06-02 00:00:00 17.5 12 Sudeste 23 Sudeste 0 -- -- 43
2019-06-01 23:00:00 13.7 4 Este 8 Este 0 -- -- 65
2019-06-01 22:00:00 18.2 4 Sudoeste 10 Sudeste 0 -- -- 53
2019-06-01 21:00:00 22.9 7 Norte 25 Sudeste 0 -- -- 40
2019-06-01 20:00:00 25.1 14 Sudeste 24 Este 0 -- -- 37
2019-06-01 19:00:00 27.8 7 Noroeste 24 Nordeste 0 -- -- 33
2019-06-01 18:00:00 27.5 11 Norte 28 Nordeste 0 -- -- 34
2019-06-01 17:00:00 28.3 8 Nordeste 17 Oeste 0 -- -- 33
2019-06-01 16:00:00 28.8 7 Oeste 14 Oeste 0 -- -- 25
2019-06-01 15:00:00 27.9 9 Sudoeste 17 Sudoeste 0 -- -- 29
2019-06-01 14:00:00 26.9 4 Sudeste 16 Sudoeste 0 -- -- 30
2019-06-01 13:00:00 26.4 3 Noroeste 17 Sudoeste 0 -- -- 34
2019-06-01 12:00:00 25.8 6 Sudoeste 15 Sudeste 0 -- -- 32
2019-06-01 11:00:00 24 7 Sur 15 Este 0 -- -- 37
2019-06-01 10:00:00 23.2 6 Este 14 Sudeste 0 -- -- 40
2019-06-01 09:00:00 21.2 8 Sudeste 11 Sudeste 0 -- -- 44
2019-06-01 08:00:00 18.1 3 Este 19 Sudeste 0 -- -- 49
2019-06-01 07:00:00 13.1 15 Sudeste 21 Sur 0 -- -- 57
2019-06-01 06:00:00 14.5 15 Sudeste 24 Sudeste 0 -- -- 50
2019-06-01 05:00:00 12.5 18 Sudeste 24 Sudeste 0 -- -- 51
2019-06-01 04:00:00 11 2 Sudeste 16 Sur 0 -- -- 54
2019-06-01 03:00:00 9.3 0 Calma 11 Sudeste 0 -- -- 63
2019-06-01 02:00:00 9.8 4 Sudeste 9 Sudeste 0 -- -- 66
2019-06-01 01:00:00 10 4 Sudeste 10 Sudeste 0 -- -- 67
2019-06-01 00:00:00 11.6 4 Sudeste 10 Sudeste 0 -- -- 65
2019-05-31 23:00:00 12.3 8 Sudeste 12 Sur 0 -- -- 65
2019-05-31 22:00:00 15.7 3 Sudoeste 15 Oeste 0 -- -- 55
2019-05-31 21:00:00 21.2 6 Noroeste 17 Noroeste 0 -- -- 38
2019-05-31 20:00:00 22.8 9 Norte 20 Norte 0 -- -- 37
2019-05-31 19:00:00 24.4 12 Norte 22 Nordeste 0 -- -- 34
2019-05-31 18:00:00 24.5 14 Norte 29 Norte 0 -- -- 34
2019-05-31 17:00:00 24.6 14 Norte 23 Norte 0 -- -- 35
2019-05-31 16:00:00 24.2 13 Norte 22 Noroeste 0 -- -- 34
2019-05-31 15:00:00 23.2 14 Norte 22 Norte 0 -- -- 36
2019-05-31 14:00:00 22.9 12 Norte 21 Noroeste 0 -- -- 41
2019-05-31 13:00:00 21.3 13 Norte 19 Norte 0 -- -- 47
2019-05-31 12:00:00 21.2 9 Noroeste 17 Norte 0 -- -- 45
2019-05-31 11:00:00 20.3 6 Noroeste 12 Noroeste 0 -- -- 48
2019-05-31 10:00:00 21.3 4 Noroeste 7 Norte 0 -- -- 47
2019-05-31 09:00:00 21.9 0 Calma 5 Nordeste 0 -- -- 43
2019-05-31 08:00:00 14.4 2 Norte 9 Sudeste 0 -- -- 67
2019-05-31 07:00:00 7.1 3 Sur 9 Sur 0 -- -- 89
2019-05-31 06:00:00 7.3 5 Sudoeste 8 Sudoeste 0 -- -- 84
2019-05-31 05:00:00 7.7 5 Sur 8 Sur 0 -- -- 87
2019-05-31 04:00:00 8.6 5 Sur 10 Sudeste 0 -- -- 81
2019-05-31 03:00:00 8.5 4 Sur 9 Sudeste 0 -- -- 82
2019-05-31 02:00:00 8.9 5 Sur 15 Sudeste 0 -- -- 85
2019-05-31 01:00:00 8.7 5 Sur 9 Sudeste 0 -- -- 89
2019-05-31 00:00:00 10.9 3 Sur 12 Nordeste 0 -- -- 80
2019-05-30 23:00:00 13.2 4 Nordeste 8 Nordeste 0 -- -- 66
2019-05-30 22:00:00 13.4 2 Sur 17 Nordeste 0 -- -- 65
2019-05-30 21:00:00 19.6 9 Norte 23 Norte 0 -- -- 40
2019-05-30 20:00:00 21.4 17 Norte 28 Norte 0 -- -- 32
2019-05-30 19:00:00 22.5 17 Norte 32 Norte 0 -- -- 30
2019-05-30 18:00:00 22.7 15 Norte 28 Noroeste 0 -- -- 30
2019-05-30 17:00:00 22.7 17 Norte 32 Norte 0 -- -- 32
2019-05-30 16:00:00 21.9 19 Norte 32 Norte 0 -- -- 34
2019-05-30 15:00:00 21.3 18 Norte 39 Norte 0 -- -- 37
2019-05-30 14:00:00 20.4 18 Norte 33 Norte 0 -- -- 40
2019-05-30 13:00:00 19.1 14 Norte 30 Norte 0 -- -- 46
2019-05-30 12:00:00 18 14 Norte 24 Nordeste 0 -- -- 50
2019-05-30 11:00:00 17 14 Norte 22 Norte 0 -- -- 52
2019-05-30 10:00:00 15.9 11 Norte 24 Norte 0 -- -- 55
2019-05-30 09:00:00 14.8 11 Norte 20 Nordeste 0 -- -- 61
2019-05-30 08:00:00 13.3 2 Sudoeste 12 Sudeste 0 -- -- 61
2019-05-30 07:00:00 5 4 Sur 11 Sudeste 0 -- -- 91
2019-05-30 06:00:00 3.9 3 Sur 8 Sudeste 0 -- -- 93
2019-05-30 05:00:00 5.6 4 Sur 9 Sur 0 -- -- 85
2019-05-30 04:00:00 5.1 3 Sur 10 Sudeste 0 -- -- 88
2019-05-30 03:00:00 7.4 5 Sudoeste 9 Sudoeste 0 -- -- 80
2019-05-30 02:00:00 9 8 Norte 21 Norte 0 -- -- 75
2019-05-30 01:00:00 8.7 11 Norte 22 Norte 0 -- -- 82
2019-05-30 00:00:00 8.5 12 Nordeste 27 Norte 0 -- -- 86
2019-05-29 23:00:00 9.7 18 Norte 29 Norte 0 -- -- 80
2019-05-29 22:00:00 10 8 Nordeste 25 Norte 0 -- -- 76
2019-05-29 21:00:00 12.3 14 Norte 35 Norte 0 -- -- 66
2019-05-29 20:00:00 13.6 23 Norte 39 Norte 0 -- -- 60
2019-05-29 19:00:00 14.4 21 Norte 33 Norte 0 -- -- 60
2019-05-29 18:00:00 13.9 17 Norte 38 Noroeste 0 -- -- 61
2019-05-29 17:00:00 13.5 19 Norte 31 Noroeste 0 -- -- 61
2019-05-29 16:00:00 13.3 17 Norte 33 Noroeste 0 -- -- 62
2019-05-29 15:00:00 11.9 18 Norte 36 Norte 0 -- -- 65
2019-05-29 14:00:00 11.4 22 Norte 40 Norte 0 -- -- 66
2019-05-29 13:00:00 10.5 26 Norte 42 Norte 0 -- -- 71
2019-05-29 12:00:00 9.1 23 Norte 39 Norte 0 -- -- 77
2019-05-29 11:00:00 9.5 21 Norte 34 Norte 0 -- -- 73
2019-05-29 10:00:00 8.1 21 Norte 36 Norte 0 -- -- 84
2019-05-29 09:00:00 7.9 18 Norte 28 Norte 0 -- -- 82
2019-05-29 08:00:00 7.4 18 Norte 27 Norte 0 -- -- 82
2019-05-29 07:00:00 6.3 12 Norte 19 Norte 0 -- -- 85
2019-05-29 06:00:00 6.6 13 Norte 29 Norte 0 -- -- 80
2019-05-29 05:00:00 6.6 14 Norte 30 Norte 0 -- -- 77
2019-05-29 04:00:00 6.9 17 Norte 28 Noroeste 0 -- -- 77
2019-05-29 03:00:00 6.5 15 Norte 27 Norte 0 -- -- 75
2019-05-29 02:00:00 5.9 15 Noroeste 26 Noroeste 0 -- -- 76
2019-05-29 01:00:00 6.4 15 Norte 32 Noroeste 0 -- -- 75
2019-05-29 00:00:00 7.5 21 Norte 37 Norte 0 -- -- 70
2019-05-28 23:00:00 7.7 22 Norte 40 Norte 0 -- -- 68
2019-05-28 22:00:00 8.2 27 Norte 45 Norte 0 -- -- 66
2019-05-28 21:00:00 9.2 30 Norte 45 Norte 0 -- -- 66
2019-05-28 20:00:00 11 27 Norte 40 Norte 0 -- -- 60
2019-05-28 19:00:00 11.2 26 Norte 53 Norte 0 -- -- 57
2019-05-28 18:00:00 12.8 26 Norte 44 Norte 0 -- -- 58
2019-05-28 17:00:00 12.4 22 Norte 41 Norte 0 -- -- 58
2019-05-28 16:00:00 12.8 27 Noroeste 44 Noroeste 0 -- -- 58
2019-05-28 15:00:00 12.1 27 Norte 39 Noroeste 0 -- -- 64
2019-05-28 14:00:00 11.5 26 Norte 38 Norte 0 -- -- 63
2019-05-28 13:00:00 11.2 17 Norte 42 Noroeste 0 -- -- 66
2019-05-28 12:00:00 10.7 20 Norte 35 Norte 0 -- -- 61
2019-05-28 11:00:00 9.5 21 Norte 35 Norte 0 -- -- 62
2019-05-28 10:00:00 8.1 18 Norte 30 Norte 0 -- -- 70
2019-05-28 09:00:00 7.4 18 Norte 31 Norte 0 -- -- 73
2019-05-28 08:00:00 6.9 12 Norte 21 Norte 0 -- -- 76
2019-05-28 07:00:00 5.5 13 Nordeste 31 Nordeste 0 -- -- 79
2019-05-28 06:00:00 5.5 21 Norte 33 Norte 0 -- -- 79
2019-05-28 05:00:00 6 13 Norte 33 Norte 0 -- -- 80
2019-05-28 04:00:00 6.4 18 Norte 26 Norte 0 -- -- 80
2019-05-28 03:00:00 6.6 7 Este 21 Norte 0 -- -- 83
2019-05-28 02:00:00 7.2 13 Norte 26 Norte 0 -- -- 84
2019-05-28 01:00:00 7.5 15 Norte 33 Norte 0 -- -- 83
2019-05-28 00:00:00 8.9 25 Norte 38 Norte 0 -- -- 79
2019-05-27 23:00:00 10.2 7 Norte 29 Nordeste 0 -- -- 80
2019-05-27 22:00:00 10.9 17 Norte 34 Norte 0 -- -- 81
2019-05-27 21:00:00 13.2 18 Norte 36 Norte 0 -- -- 75
2019-05-27 20:00:00 14.4 19 Norte 37 Norte 0 -- -- 69
2019-05-27 19:00:00 15.6 25 Norte 39 Norte 0 -- -- 63
2019-05-27 18:00:00 16.2 23 Norte 44 Norte 0 -- -- 63
2019-05-27 17:00:00 17.4 24 Norte 41 Norte 0 -- -- 61
2019-05-27 16:00:00 17.7 23 Nordeste 37 Nordeste 0 -- -- 62
2019-05-27 15:00:00 17.7 19 Norte 35 Norte 0 -- -- 60
2019-05-27 14:00:00 16.9 19 Norte 30 Norte 0 -- -- 65
2019-05-27 13:00:00 16.1 19 Norte 34 Norte 0 -- -- 65
2019-05-27 12:00:00 16.5 13 Norte 22 Norte 0 -- -- 59
2019-05-27 11:00:00 14.9 6 Norte 13 Norte 0 -- -- 63
2019-05-27 10:00:00 11.2 8 Norte 13 Norte 0 -- -- 71
2019-05-27 09:00:00 13.5 2 Norte 7 Sur 0 -- -- 63
2019-05-27 08:00:00 9.8 3 Oeste 10 Oeste 0 -- -- 84
2019-05-27 07:00:00 6 5 Noroeste 8 Noroeste 0 -- -- 93
2019-05-27 06:00:00 4.7 2 Noroeste 8 Sudeste 0 -- -- 94
2019-05-27 05:00:00 5.3 2 Sudoeste 8 Sudeste 0 -- -- 89
2019-05-27 04:00:00 5.4 3 Sur 9 Sudoeste 0 -- -- 94
2019-05-27 03:00:00 5.4 2 Sur 9 Sudoeste 0 -- -- 92
2019-05-27 02:00:00 7 3 Sudoeste 10 Oeste 0 -- -- 92
2019-05-27 01:00:00 8.2 3 Noroeste 20 Norte 0 -- -- 89
2019-05-27 00:00:00 9 12 Norte 20 Nordeste 0 -- -- 87
2019-05-26 23:00:00 9.1 7 Este 28 Norte 0 -- -- 87
2019-05-26 22:00:00 9.9 19 Norte 30 Norte 0 -- -- 83
2019-05-26 21:00:00 10.8 18 Norte 35 Norte 0 -- -- 80
2019-05-26 20:00:00 11.7 19 Norte 36 Norte 0 -- -- 74
2019-05-26 19:00:00 13.7 24 Norte 43 Norte 0 -- -- 64
2019-05-26 18:00:00 14.2 27 Norte 45 Norte 0 -- -- 63
2019-05-26 17:00:00 14.5 27 Norte 42 Norte 0 -- -- 63
2019-05-26 16:00:00 14.2 23 Norte 44 Norte 0 -- -- 64
2019-05-26 15:00:00 13.2 24 Norte 41 Norte 0 -- -- 65
2019-05-26 14:00:00 12.7 27 Norte 42 Norte 0 -- -- 68
2019-05-26 13:00:00 11.4 28 Norte 43 Norte 0 -- -- 69
2019-05-26 12:00:00 11.3 23 Norte 40 Norte 0 -- -- 71
2019-05-26 11:00:00 9.8 22 Norte 35 Norte 0 -- -- 74
2019-05-26 10:00:00 9.1 19 Norte 38 Norte 0 -- -- 75
2019-05-26 09:00:00 7.9 18 Norte 31 Norte 0 -- -- 79
2019-05-26 08:00:00 7.4 18 Norte 34 Noroeste 0 -- -- 80
2019-05-26 07:00:00 7.2 20 Norte 35 Norte 0 -- -- 80
2019-05-26 06:00:00 6.8 12 Norte 22 Norte 0 -- -- 80
2019-05-26 05:00:00 6.8 12 Norte 28 Noroeste 0 -- -- 81
2019-05-26 04:00:00 6.7 14 Norte 25 Norte 0 -- -- 81
2019-05-26 03:00:00 6.8 13 Norte 29 Norte 0 -- -- 85
2019-05-26 02:00:00 7 19 Norte 33 Norte 0 -- -- 86
2019-05-26 01:00:00 7.6 18 Norte 37 Norte 0 -- -- 84
2019-05-26 00:00:00 7.9 19 Norte 33 Norte 0 -- -- 84
2019-05-25 23:00:00 8.5 18 Norte 35 Nordeste 0 -- -- 85
2019-05-25 22:00:00 9.2 20 Norte 36 Norte 0 -- -- 83
2019-05-25 21:00:00 9.9 20 Norte 34 Norte 0 -- -- 82
2019-05-25 20:00:00 11.3 22 Norte 33 Norte 0 -- -- 76
2019-05-25 19:00:00 11.6 20 Norte 35 Norte 0 -- -- 74
2019-05-25 18:00:00 12.6 21 Norte 35 Norte 0 -- -- 68
2019-05-25 17:00:00 13.1 23 Norte 39 Norte 0 -- -- 64
2019-05-25 16:00:00 12.8 21 Norte 36 Norte 0 -- -- 64
2019-05-25 15:00:00 12.7 24 Norte 40 Norte 0 -- -- 67
2019-05-25 14:00:00 11.4 22 Norte 33 Norte 0 -- -- 71
2019-05-25 13:00:00 10.9 20 Norte 42 Norte 0 -- -- 74
2019-05-25 12:00:00 10.2 21 Norte 33 Norte 0 -- -- 74
2019-05-25 11:00:00 9.3 14 Norte 28 Norte 0 -- -- 78
2019-05-25 10:00:00 9.1 13 Norte 30 Norte 0 -- -- 79
2019-05-25 09:00:00 8.2 15 Norte 34 Norte 0 -- -- 81
2019-05-25 08:00:00 8.2 14 Norte 32 Norte 0 -- -- 81
2019-05-25 07:00:00 8 15 Norte 33 Norte 0 -- -- 83
2019-05-25 06:00:00 8.1 24 Norte 37 Norte 0 -- -- 81
2019-05-25 05:00:00 8.2 23 Norte 42 Norte 0 -- -- 79
2019-05-25 04:00:00 7.9 25 Norte 41 Norte 0 -- -- 82
2019-05-25 03:00:00 8.3 19 Norte 38 Norte 0 -- -- 83
2019-05-25 02:00:00 8.2 24 Norte 42 Norte 0 -- -- 85
2019-05-25 01:00:00 8.4 27 Norte 51 Norte 0 -- -- 86
2019-05-25 00:00:00 8.6 24 Norte 41 Norte 0 -- -- 86